createdAt,value
2019-02-02T00:01:59.450Z,67.81
2019-02-02T00:04:28.968Z,68.06
2019-02-02T00:06:58.621Z,68.08
2019-02-02T00:09:28.747Z,67.87
2019-02-02T00:11:58.737Z,67.77
2019-02-02T00:14:28.700Z,67.31
2019-02-02T00:16:59.132Z,67.21
2019-02-02T00:19:29.080Z,67.70
2019-02-02T00:21:58.899Z,67.78
2019-02-02T00:24:29.078Z,67.92
2019-02-02T00:26:58.939Z,68.09
2019-02-02T00:29:28.913Z,67.62
2019-02-02T00:31:59.084Z,67.56
2019-02-02T00:34:28.986Z,67.28
2019-02-02T00:36:59.371Z,67.13
2019-02-02T00:39:29.093Z,67.37
2019-02-02T00:41:59.334Z,67.89
2019-02-02T00:44:29.352Z,68.42
2019-02-02T00:46:59.609Z,68.15
2019-02-02T00:49:29.300Z,67.77
2019-02-02T00:51:59.395Z,67.74
2019-02-02T00:54:29.435Z,67.99
2019-02-02T00:56:59.868Z,68.21
2019-02-02T00:59:29.649Z,68.43
2019-02-02T01:01:59.452Z,68.54
2019-02-02T01:04:29.491Z,68.48
2019-02-02T01:06:59.872Z,68.42
2019-02-02T01:09:29.873Z,68.43
2019-02-02T01:11:59.937Z,68.80
2019-02-02T01:14:29.648Z,68.54
2019-02-02T01:17:00.064Z,68.53
2019-02-02T01:19:30.221Z,67.81
2019-02-02T01:22:00.041Z,68.25
2019-02-02T01:24:30.076Z,68.47
2019-02-02T01:27:00.111Z,68.22
2019-02-02T01:29:29.918Z,68.07
2019-02-02T01:32:00.178Z,68.23
2019-02-02T01:34:30.000Z,68.42
2019-02-02T01:37:00.245Z,68.48
2019-02-02T01:39:30.031Z,68.27
2019-02-02T01:42:00.289Z,68.51
2019-02-02T01:44:30.236Z,68.57
2019-02-02T01:47:00.187Z,68.80
2019-02-02T01:49:30.256Z,68.51
2019-02-02T01:52:00.228Z,68.27
2019-02-02T01:54:30.327Z,68.20
2019-02-02T01:57:00.452Z,68.53
2019-02-02T01:59:30.314Z,68.36
2019-02-02T02:02:00.667Z,68.64
2019-02-02T02:04:30.466Z,68.46
2019-02-02T02:07:00.591Z,68.01
2019-02-02T02:09:30.672Z,67.97
2019-02-02T02:12:00.759Z,68.19
2019-02-02T02:14:30.600Z,67.39
2019-02-02T02:17:01.885Z,67.50
2019-02-02T02:19:31.664Z,67.36
2019-02-02T02:22:02.193Z,67.54
2019-02-02T02:24:32.029Z,67.54
2019-02-02T02:27:01.668Z,68.01
2019-02-02T02:29:31.458Z,67.46
2019-02-02T02:32:01.131Z,67.56
2019-02-02T02:34:31.490Z,67.61
2019-02-02T02:37:01.973Z,67.70
2019-02-02T02:39:31.739Z,67.17
2019-02-02T02:42:01.696Z,67.43
2019-02-02T02:44:31.202Z,67.90
2019-02-02T02:47:01.304Z,68.07
2019-02-02T02:49:31.072Z,67.38
2019-02-02T02:52:01.144Z,67.60
2019-02-02T02:54:31.468Z,67.79
2019-02-02T02:57:01.406Z,68.26
2019-02-02T02:59:31.787Z,67.60
2019-02-02T03:02:01.375Z,67.95
2019-02-02T03:04:31.586Z,67.58
2019-02-02T03:07:01.631Z,67.94
2019-02-02T03:09:31.856Z,67.84
2019-02-02T03:12:01.539Z,68.18
2019-02-02T03:14:31.505Z,68.18
2019-02-02T03:17:01.632Z,68.23
2019-02-02T03:19:31.746Z,68.60
2019-02-02T03:22:01.649Z,68.42
2019-02-02T03:24:31.669Z,68.17
2019-02-02T03:27:01.971Z,68.19
2019-02-02T03:29:31.820Z,68.05
2019-02-02T03:32:02.191Z,68.31
2019-02-02T03:34:31.943Z,68.46
2019-02-02T03:37:01.977Z,68.79
2019-02-02T03:39:32.303Z,68.63
2019-02-02T03:42:02.164Z,68.45
2019-02-02T03:44:32.208Z,68.31
2019-02-02T03:47:02.495Z,68.23
2019-02-02T03:49:32.451Z,68.84
2019-02-02T03:52:02.319Z,69.33
2019-02-02T03:54:32.576Z,68.52
2019-02-02T03:57:02.524Z,68.69
2019-02-02T03:59:32.407Z,68.72
2019-02-02T04:02:02.626Z,68.87
2019-02-02T04:04:32.664Z,69.04
2019-02-02T04:07:02.526Z,69.06
2019-02-02T04:09:32.983Z,69.18
2019-02-02T04:12:02.530Z,69.13
2019-02-02T04:14:32.732Z,68.72
2019-02-02T04:17:02.938Z,68.73
2019-02-02T04:19:32.621Z,68.82
2019-02-02T04:22:02.949Z,68.78
2019-02-02T04:24:33.104Z,69.02
2019-02-02T04:27:02.846Z,68.98
2019-02-02T04:29:32.832Z,68.90
2019-02-02T04:32:03.122Z,68.92
2019-02-02T04:34:33.582Z,69.02
2019-02-02T04:37:03.109Z,69.02
2019-02-02T04:39:33.786Z,69.19
2019-02-02T04:42:03.672Z,69.02
2019-02-02T04:44:33.632Z,68.80
2019-02-02T04:47:03.155Z,69.10
2019-02-02T04:49:33.608Z,69.15
2019-02-02T04:52:03.305Z,69.27
2019-02-02T04:54:33.266Z,69.40
2019-02-02T04:57:03.511Z,69.73
2019-02-02T04:59:33.445Z,69.59
2019-02-02T05:02:04.353Z,69.85
2019-02-02T05:04:33.897Z,69.80
2019-02-02T05:07:03.515Z,69.88
2019-02-02T05:09:33.626Z,70.31
2019-02-02T05:12:03.871Z,70.17
2019-02-02T05:14:33.804Z,70.53
2019-02-02T05:17:03.964Z,70.52
2019-02-02T05:19:34.266Z,70.65
2019-02-02T05:22:03.795Z,70.27
2019-02-02T05:24:33.978Z,70.04
2019-02-02T05:27:04.332Z,70.01
2019-02-02T05:29:41.036Z,70.04
2019-02-02T05:32:05.197Z,70.20
2019-02-02T05:34:34.984Z,70.12
2019-02-02T05:37:04.796Z,70.57
2019-02-02T05:39:34.565Z,70.40
2019-02-02T05:42:04.468Z,70.43
2019-02-02T05:44:33.977Z,70.56
2019-02-02T05:47:03.961Z,70.38
2019-02-02T05:49:34.250Z,70.19
2019-02-02T05:52:04.180Z,70.07
2019-02-02T05:54:35.448Z,70.12
2019-02-02T05:57:05.045Z,70.76
2019-02-02T05:59:35.126Z,70.79
2019-02-02T06:02:04.807Z,70.90
2019-02-02T06:04:34.451Z,70.44
2019-02-02T06:07:04.568Z,70.49
2019-02-02T06:09:34.967Z,70.45
2019-02-02T06:12:04.665Z,70.56
2019-02-02T06:14:34.562Z,70.39
2019-02-02T06:17:04.740Z,70.91
2019-02-02T06:19:34.857Z,70.91
2019-02-02T06:22:04.561Z,70.01
2019-02-02T06:24:34.658Z,70.01
2019-02-02T06:27:04.952Z,70.87
2019-02-02T06:29:34.895Z,70.89
2019-02-02T06:32:12.123Z,71.04
2019-02-02T06:34:36.309Z,70.86
2019-02-02T06:37:06.213Z,70.75
2019-02-02T06:39:35.819Z,70.70
2019-02-02T06:42:05.421Z,70.34
2019-02-02T06:44:35.038Z,70.64
2019-02-02T06:47:05.233Z,70.70
2019-02-02T06:49:34.977Z,71.06
2019-02-02T06:52:05.249Z,70.92
2019-02-02T06:54:35.346Z,70.79
2019-02-02T06:57:05.656Z,70.90
2019-02-02T06:59:35.406Z,71.15
2019-02-02T07:02:05.725Z,71.38
2019-02-02T07:04:35.326Z,71.34
2019-02-02T07:07:05.458Z,71.29
2019-02-02T07:09:35.952Z,71.11
2019-02-02T07:12:05.499Z,71.13
2019-02-02T07:14:35.354Z,70.67
2019-02-02T07:17:05.842Z,70.53
2019-02-02T07:19:35.861Z,71.25
2019-02-02T07:22:05.786Z,71.31
2019-02-02T07:24:36.056Z,71.28
2019-02-02T07:27:05.701Z,71.41
2019-02-02T07:29:36.200Z,70.60
2019-02-02T07:32:06.375Z,70.30
2019-02-02T07:34:35.868Z,70.54
2019-02-02T07:37:05.939Z,70.89
2019-02-02T07:39:36.018Z,70.76
2019-02-02T07:42:05.973Z,70.89
2019-02-02T07:44:36.017Z,70.60
2019-02-02T07:47:05.828Z,69.93
2019-02-02T07:49:35.841Z,70.49
2019-02-02T07:52:06.247Z,70.11
2019-02-02T07:54:36.365Z,70.72
2019-02-02T07:57:06.135Z,71.11
2019-02-02T07:59:36.125Z,71.35
2019-02-02T08:02:06.340Z,71.28
2019-02-02T08:04:36.439Z,71.07
2019-02-02T08:07:06.666Z,71.24
2019-02-02T08:09:36.174Z,71.31
2019-02-02T08:12:06.309Z,71.38
2019-02-02T08:14:37.597Z,71.25
2019-02-02T08:17:07.446Z,71.34
2019-02-02T08:19:37.224Z,71.43
2019-02-02T08:22:07.276Z,71.44
2019-02-02T08:24:38.702Z,71.57
2019-02-02T08:27:08.185Z,71.70
2019-02-02T08:29:38.664Z,71.49
2019-02-02T08:32:08.497Z,71.49
2019-02-02T08:34:38.025Z,71.53
2019-02-02T08:37:07.891Z,71.61
2019-02-02T08:39:37.538Z,71.56
2019-02-02T08:42:07.219Z,71.75
2019-02-02T08:44:37.507Z,71.65
2019-02-02T08:47:07.101Z,71.62
2019-02-02T08:49:40.229Z,71.79
2019-02-02T08:52:08.617Z,71.83
2019-02-02T08:54:38.457Z,71.87
2019-02-02T08:57:08.040Z,71.47
2019-02-02T08:59:37.745Z,71.46
2019-02-02T09:02:07.374Z,71.72
2019-02-02T09:04:36.998Z,71.78
2019-02-02T09:07:07.525Z,71.91
2019-02-02T09:09:37.379Z,71.96
2019-02-02T09:12:07.139Z,71.95
2019-02-02T09:14:37.182Z,71.87
2019-02-02T09:17:07.490Z,71.77
2019-02-02T09:19:37.654Z,71.88
2019-02-02T09:22:07.594Z,72.03
2019-02-02T09:24:37.627Z,71.95
2019-02-02T09:27:07.428Z,71.65
2019-02-02T09:29:37.726Z,71.65
2019-02-02T09:32:07.902Z,71.61
2019-02-02T09:34:37.692Z,71.65
2019-02-02T09:37:07.929Z,71.77
2019-02-02T09:39:37.850Z,71.96
2019-02-02T09:42:08.392Z,71.97
2019-02-02T09:44:38.175Z,71.91
2019-02-02T09:47:08.584Z,72.12
2019-02-02T09:49:38.588Z,72.43
2019-02-02T09:52:08.325Z,72.26
2019-02-02T09:54:38.973Z,71.99
2019-02-02T09:57:08.844Z,71.92
2019-02-02T09:59:38.703Z,71.85
2019-02-02T10:02:08.599Z,71.95
2019-02-02T10:04:38.718Z,71.89
2019-02-02T10:07:08.558Z,71.74
2019-02-02T10:09:38.850Z,71.67
2019-02-02T10:12:08.782Z,71.70
2019-02-02T10:14:38.654Z,71.89
2019-02-02T10:17:08.808Z,72.29
2019-02-02T10:19:38.744Z,72.27
2019-02-02T10:22:08.332Z,72.02
2019-02-02T10:24:39.366Z,71.82
2019-02-02T10:27:09.646Z,72.01
2019-02-02T10:29:39.183Z,72.21
2019-02-02T10:32:09.033Z,72.14
2019-02-02T10:34:39.364Z,71.88
2019-02-02T10:37:09.154Z,71.25
2019-02-02T10:39:39.268Z,71.33
2019-02-02T10:42:09.249Z,71.16
2019-02-02T10:44:39.303Z,71.20
2019-02-02T10:47:09.412Z,70.97
2019-02-02T10:49:41.219Z,71.13
2019-02-02T10:52:10.716Z,71.59
2019-02-02T10:54:40.253Z,72.17
2019-02-02T10:57:09.996Z,72.63
2019-02-02T10:59:39.602Z,73.06
2019-02-02T11:02:09.758Z,73.25
2019-02-02T11:04:40.059Z,73.24
2019-02-02T11:07:10.179Z,73.06
2019-02-02T11:09:39.785Z,73.42
2019-02-02T11:12:09.747Z,73.57
2019-02-02T11:14:40.080Z,73.54
2019-02-02T11:17:10.208Z,73.66
2019-02-02T11:19:40.344Z,73.63
2019-02-02T11:22:10.112Z,73.75
2019-02-02T11:24:39.945Z,73.95
2019-02-02T11:27:12.483Z,74.11
2019-02-02T11:29:41.407Z,74.18
2019-02-02T11:32:10.982Z,74.29
2019-02-02T11:34:41.154Z,74.32
2019-02-02T11:37:10.967Z,74.13
2019-02-02T11:39:40.780Z,73.92
2019-02-02T11:42:10.551Z,73.76
2019-02-02T11:44:40.201Z,73.95
2019-02-02T11:47:10.356Z,73.99
2019-02-02T11:49:40.478Z,74.02
2019-02-02T11:52:10.740Z,73.92
2019-02-02T11:54:40.335Z,74.01
2019-02-02T11:57:10.390Z,74.10
2019-02-02T11:59:40.433Z,74.04
2019-02-02T12:02:14.629Z,73.88
2019-02-02T12:04:42.138Z,73.83
2019-02-02T12:07:11.904Z,73.86
2019-02-02T12:09:41.920Z,73.85
2019-02-02T12:12:11.535Z,73.62
2019-02-02T12:14:41.463Z,73.58
2019-02-02T12:17:11.251Z,73.74
2019-02-02T12:19:40.947Z,73.67
2019-02-02T12:22:10.903Z,73.72
2019-02-02T12:24:41.019Z,73.95
2019-02-02T12:27:11.543Z,73.77
2019-02-02T12:29:41.061Z,73.86
2019-02-02T12:32:11.073Z,73.86
2019-02-02T12:34:41.479Z,73.73
2019-02-02T12:37:11.889Z,73.66
2019-02-02T12:39:41.690Z,73.45
2019-02-02T12:42:11.244Z,73.42
2019-02-02T12:44:41.424Z,73.67
2019-02-02T12:47:11.374Z,73.69
2019-02-02T12:49:41.547Z,73.76
2019-02-02T12:52:11.602Z,73.67
2019-02-02T12:54:41.787Z,73.63
2019-02-02T12:57:11.710Z,73.75
2019-02-02T12:59:41.493Z,73.66
2019-02-02T13:02:11.762Z,73.71
2019-02-02T13:04:41.651Z,73.61
2019-02-02T13:07:11.783Z,73.70
2019-02-02T13:09:41.647Z,73.57
2019-02-02T13:12:11.611Z,73.73
2019-02-02T13:14:41.727Z,73.96
2019-02-02T13:17:11.696Z,74.10
2019-02-02T13:19:42.197Z,73.99
2019-02-02T13:22:11.782Z,74.20
2019-02-02T13:24:41.953Z,74.31
2019-02-02T13:27:11.865Z,74.24
2019-02-02T13:29:42.153Z,74.31
2019-02-02T13:32:12.327Z,74.30
2019-02-02T13:34:42.222Z,74.38
2019-02-02T13:37:11.989Z,74.30
2019-02-02T13:39:42.446Z,74.32
2019-02-02T13:42:12.066Z,74.17
2019-02-02T13:44:42.144Z,74.21
2019-02-02T13:47:12.174Z,74.46
2019-02-02T13:49:42.284Z,74.42
2019-02-02T13:52:12.524Z,74.36
2019-02-02T13:54:42.296Z,74.52
2019-02-02T13:57:12.633Z,74.56
2019-02-02T13:59:42.597Z,74.45
2019-02-02T14:02:12.653Z,74.35
2019-02-02T14:04:42.411Z,74.21
2019-02-02T14:07:18.258Z,74.23
2019-02-02T14:09:44.139Z,74.26
2019-02-02T14:12:14.195Z,74.34
2019-02-02T14:14:44.180Z,74.29
2019-02-02T14:17:14.296Z,74.18
2019-02-02T14:19:43.897Z,74.19
2019-02-02T14:22:13.809Z,73.99
2019-02-02T14:24:43.654Z,73.86
2019-02-02T14:27:13.204Z,74.17
2019-02-02T14:29:43.066Z,74.35
2019-02-02T14:32:12.988Z,74.47
2019-02-02T14:34:43.148Z,74.42
2019-02-02T14:37:13.204Z,74.40
2019-02-02T14:39:43.186Z,74.31
2019-02-02T14:42:13.371Z,74.32
2019-02-02T14:44:43.603Z,74.54
2019-02-02T14:47:13.324Z,74.68
2019-02-02T14:49:43.439Z,74.71
2019-02-02T14:52:13.253Z,74.30
2019-02-02T14:54:43.666Z,74.35
2019-02-02T14:57:13.295Z,74.28
2019-02-02T14:59:43.345Z,74.26
2019-02-02T15:02:13.385Z,74.37
2019-02-02T15:04:43.902Z,74.49
2019-02-02T15:07:13.613Z,74.42
2019-02-02T15:09:43.893Z,74.44
2019-02-02T15:12:13.633Z,74.47
2019-02-02T15:14:43.521Z,74.39
2019-02-02T15:17:13.641Z,74.51
2019-02-02T15:19:43.589Z,74.48
2019-02-02T15:22:13.990Z,74.55
2019-02-02T15:24:44.063Z,74.62
2019-02-02T15:27:14.822Z,74.59
2019-02-02T15:29:44.754Z,74.88
2019-02-02T15:32:14.304Z,74.88
2019-02-02T15:34:45.582Z,74.69
2019-02-02T15:37:15.238Z,74.62
2019-02-02T15:39:44.783Z,74.59
2019-02-02T15:42:14.697Z,74.66
2019-02-02T15:44:44.494Z,74.55
2019-02-02T15:47:14.364Z,74.62
2019-02-02T15:49:44.174Z,74.75
2019-02-02T15:52:14.462Z,74.76
2019-02-02T15:54:45.219Z,74.68
2019-02-02T15:57:14.731Z,74.68
2019-02-02T15:59:44.539Z,74.59
2019-02-02T16:02:14.392Z,74.69
2019-02-02T16:04:44.962Z,74.66
2019-02-02T16:07:14.854Z,74.71
2019-02-02T16:09:44.538Z,74.80
2019-02-02T16:12:14.836Z,74.81
2019-02-02T16:14:44.740Z,74.93
2019-02-02T16:17:14.977Z,74.97
2019-02-02T16:19:44.667Z,74.92
2019-02-02T16:22:14.792Z,74.85
2019-02-02T16:24:44.690Z,74.65
2019-02-02T16:27:14.672Z,74.63
2019-02-02T16:29:44.676Z,74.71
2019-02-02T16:32:15.027Z,74.80
2019-02-02T16:34:45.155Z,74.75
2019-02-02T16:37:15.117Z,74.64
2019-02-02T16:39:44.854Z,74.53
2019-02-02T16:42:15.096Z,74.63
2019-02-02T16:44:45.037Z,74.64
2019-02-02T16:47:15.581Z,74.66
2019-02-02T16:49:45.075Z,74.61
2019-02-02T16:52:15.624Z,74.57
2019-02-02T16:54:45.222Z,74.55
2019-02-02T16:57:15.174Z,74.49
2019-02-02T16:59:45.456Z,74.33
2019-02-02T17:02:15.270Z,74.53
2019-02-02T17:04:45.549Z,74.58
2019-02-02T17:07:15.567Z,74.60
2019-02-02T17:09:45.524Z,74.58
2019-02-02T17:12:15.422Z,74.55
2019-02-02T17:14:45.562Z,74.50
2019-02-02T17:17:15.733Z,74.32
2019-02-02T17:19:45.489Z,74.19
2019-02-02T17:22:15.585Z,74.32
2019-02-02T17:24:46.227Z,74.29
2019-02-02T17:27:15.952Z,74.39
2019-02-02T17:29:45.631Z,74.22
2019-02-02T17:32:16.087Z,74.17
2019-02-02T17:34:45.715Z,74.05
2019-02-02T17:37:16.215Z,74.29
2019-02-02T17:39:45.817Z,74.46
2019-02-02T17:42:16.163Z,74.62
2019-02-02T17:44:47.320Z,74.52
2019-02-02T17:47:17.240Z,74.49
2019-02-02T17:49:46.745Z,74.56
2019-02-02T17:52:16.380Z,74.65
2019-02-02T17:54:46.389Z,74.66
2019-02-02T17:57:15.886Z,74.87
2019-02-02T17:59:46.141Z,74.80
2019-02-02T18:02:16.388Z,74.90
2019-02-02T18:04:46.197Z,74.95
2019-02-02T18:07:16.227Z,74.91
2019-02-02T18:09:46.804Z,74.86
2019-02-02T18:12:17.017Z,75.01
2019-02-02T18:14:48.141Z,74.96
2019-02-02T18:17:17.792Z,74.83
2019-02-02T18:19:47.323Z,74.87
2019-02-02T18:22:16.913Z,75.05
2019-02-02T18:24:46.845Z,74.91
2019-02-02T18:27:16.533Z,74.97
2019-02-02T18:29:47.509Z,74.99
2019-02-02T18:32:17.059Z,74.93
2019-02-02T18:34:51.310Z,74.93
2019-02-02T18:37:18.339Z,74.85
2019-02-02T18:39:47.850Z,74.91
2019-02-02T18:42:17.362Z,74.96
2019-02-02T18:44:47.216Z,75.17
2019-02-02T18:47:17.310Z,75.06
2019-02-02T18:49:46.922Z,75.05
2019-02-02T18:52:17.121Z,75.05
2019-02-02T18:54:47.315Z,74.97
2019-02-02T18:57:17.141Z,74.91
2019-02-02T18:59:47.149Z,75.24
2019-02-02T19:02:17.518Z,75.39
2019-02-02T19:04:47.460Z,75.47
2019-02-02T19:07:17.944Z,75.48
2019-02-02T19:09:47.499Z,75.39
2019-02-02T19:12:17.441Z,75.48
2019-02-02T19:14:47.335Z,75.55
2019-02-02T19:17:17.525Z,75.46
2019-02-02T19:19:47.843Z,75.45
2019-02-02T19:22:17.443Z,75.55
2019-02-02T19:24:47.514Z,75.60
2019-02-02T19:27:17.735Z,75.74
2019-02-02T19:29:47.790Z,75.79
2019-02-02T19:32:17.618Z,75.82
2019-02-02T19:34:49.279Z,75.91
2019-02-02T19:37:21.121Z,75.78
2019-02-02T19:39:50.420Z,75.69
2019-02-02T19:42:20.047Z,75.73
2019-02-02T19:44:49.567Z,75.60
2019-02-02T19:47:19.302Z,75.65
2019-02-02T19:49:48.783Z,75.74
2019-02-02T19:52:18.691Z,75.62
2019-02-02T19:54:48.843Z,75.51
2019-02-02T19:57:19.753Z,75.51
2019-02-02T19:59:51.307Z,75.55
2019-02-02T20:02:21.142Z,75.69
2019-02-02T20:04:50.964Z,75.80
2019-02-02T20:07:20.940Z,75.77
2019-02-02T20:09:51.549Z,75.83
2019-02-02T20:12:21.696Z,75.88
2019-02-02T20:14:51.361Z,75.84
2019-02-02T20:17:21.024Z,75.88
2019-02-02T20:19:50.591Z,76.04
2019-02-02T20:22:20.626Z,76.03
2019-02-02T20:24:50.578Z,75.99
2019-02-02T20:27:20.412Z,75.89
2019-02-02T20:29:50.088Z,75.80
2019-02-02T20:32:19.665Z,75.57
2019-02-02T20:34:49.290Z,75.73
2019-02-02T20:37:19.124Z,75.71
2019-02-02T20:39:48.720Z,75.67
2019-02-02T20:42:19.191Z,75.67
2019-02-02T20:44:48.800Z,75.59
2019-02-02T20:47:18.736Z,75.43
2019-02-02T20:49:49.259Z,75.38
2019-02-02T20:52:18.768Z,75.43
2019-02-02T20:54:49.434Z,75.48
2019-02-02T20:57:19.676Z,75.50
2019-02-02T20:59:49.246Z,75.59
2019-02-02T21:02:18.900Z,75.60
2019-02-02T21:04:49.111Z,75.68
2019-02-02T21:07:19.006Z,75.65
2019-02-02T21:09:49.106Z,75.68
2019-02-02T21:12:19.336Z,75.53
2019-02-02T21:14:49.392Z,75.49
2019-02-02T21:17:19.160Z,75.45
2019-02-02T21:19:49.290Z,75.30
2019-02-02T21:22:19.540Z,75.36
2019-02-02T21:24:49.656Z,75.32
2019-02-02T21:27:21.093Z,75.35
2019-02-02T21:29:50.752Z,75.52
2019-02-02T21:32:20.332Z,75.59
2019-02-02T21:34:49.887Z,75.53
2019-02-02T21:37:19.475Z,75.52
2019-02-02T21:39:49.781Z,75.56
2019-02-02T21:42:19.601Z,75.46
2019-02-02T21:44:49.617Z,75.49
2019-02-02T21:47:19.845Z,75.51
2019-02-02T21:49:49.953Z,75.60
2019-02-02T21:52:19.701Z,75.63
2019-02-02T21:54:50.377Z,75.57
2019-02-02T21:57:20.068Z,75.50
2019-02-02T21:59:50.488Z,75.42
2019-02-02T22:02:21.355Z,75.19
2019-02-02T22:04:51.603Z,75.19
2019-02-02T22:07:22.445Z,75.04
2019-02-02T22:09:52.083Z,75.04
2019-02-02T22:12:21.589Z,74.96
2019-02-02T22:14:51.408Z,74.88
2019-02-02T22:17:20.975Z,74.82
2019-02-02T22:19:50.756Z,74.82
2019-02-02T22:22:20.369Z,74.83
2019-02-02T22:24:50.225Z,74.80
2019-02-02T22:27:20.281Z,74.88
2019-02-02T22:29:50.307Z,74.84
2019-02-02T22:32:20.381Z,74.85
2019-02-02T22:34:50.382Z,74.97
2019-02-02T22:37:20.375Z,74.99
2019-02-02T22:39:50.392Z,75.04
2019-02-02T22:42:20.486Z,75.13
2019-02-02T22:44:50.517Z,75.02
2019-02-02T22:47:20.556Z,74.98
2019-02-02T22:49:50.613Z,74.92
2019-02-02T22:52:20.889Z,74.80
2019-02-02T22:54:50.924Z,74.80
2019-02-02T22:57:20.716Z,74.77
2019-02-02T22:59:51.115Z,75.17
2019-02-02T23:02:22.221Z,75.33
2019-02-02T23:05:05.594Z,75.33
2019-02-02T23:08:21.601Z,75.50
2019-02-02T23:11:30.277Z,75.53
2019-02-02T23:14:36.202Z,75.42
2019-02-02T23:17:05.786Z,75.50
2019-02-02T23:19:35.383Z,75.54
2019-02-02T23:22:04.981Z,75.62
2019-02-02T23:24:35.477Z,75.47
2019-02-02T23:27:05.070Z,75.42
2019-02-02T23:29:34.588Z,75.24
2019-02-02T23:32:04.233Z,75.08
2019-02-02T23:34:34.046Z,75.16
2019-02-02T23:37:03.919Z,75.09
2019-02-02T23:39:33.920Z,75.00
2019-02-02T23:42:03.529Z,74.93
2019-02-02T23:44:33.242Z,74.85
2019-02-02T23:47:03.159Z,74.71
2019-02-02T23:49:33.017Z,74.79
2019-02-02T23:52:02.593Z,74.73
2019-02-02T23:54:32.123Z,74.59
2019-02-02T23:57:01.643Z,74.46
2019-02-02T23:59:31.166Z,74.41
